sensor_id;sensor_type;location;lat;lon;timestamp;pressure;altitude;pressure_sealevel;temperature;humidity
71976;BME280;60680;52.182;5.398;2023-02-17T00:01:16;101890.84;;;9.69;100.00
71976;BME280;60680;52.182;5.398;2023-02-17T00:03:44;101882.25;;;9.67;100.00
71976;BME280;60680;52.182;5.398;2023-02-17T00:06:15;101892.59;;;9.68;100.00
71976;BME280;60680;52.182;5.398;2023-02-17T00:08:42;101893.50;;;9.67;100.00
71976;BME280;60680;52.182;5.398;2023-02-17T00:11:09;101893.50;;;9.67;100.00
71976;BME280;60680;52.182;5.398;2023-02-17T00:13:36;101891.75;;;9.68;100.00
71976;BME280;60680;52.182;5.398;2023-02-17T00:16:20;101890.91;;;9.67;100.00
71976;BME280;60680;52.182;5.398;2023-02-17T00:18:52;101886.56;;;9.68;100.00
71976;BME280;60680;52.182;5.398;2023-02-17T00:21:21;101878.75;;;9.68;100.00
71976;BME280;60680;52.182;5.398;2023-02-17T00:23:48;101881.34;;;9.68;100.00
71976;BME280;60680;52.182;5.398;2023-02-17T00:26:16;101872.72;;;9.67;100.00
71976;BME280;60680;52.182;5.398;2023-02-17T00:28:43;101870.97;;;9.68;100.00
71976;BME280;60680;52.182;5.398;2023-02-17T00:31:21;101877.84;;;9.69;100.00
71976;BME280;60680;52.182;5.398;2023-02-17T00:33:48;101876.16;;;9.68;100.00
71976;BME280;60680;52.182;5.398;2023-02-17T00:36:16;101876.16;;;9.68;100.00
71976;BME280;60680;52.182;5.398;2023-02-17T00:38:44;101881.34;;;9.68;100.00
71976;BME280;60680;52.182;5.398;2023-02-17T00:41:11;101873.56;;;9.68;100.00
71976;BME280;60680;52.182;5.398;2023-02-17T00:43:38;101873.56;;;9.68;100.00
71976;BME280;60680;52.182;5.398;2023-02-17T00:46:04;101870.97;;;9.68;100.00
71976;BME280;60680;52.182;5.398;2023-02-17T00:48:32;101868.38;;;9.68;100.00
71976;BME280;60680;52.182;5.398;2023-02-17T00:50:59;101870.97;;;9.68;100.00
71976;BME280;60680;52.182;5.398;2023-02-17T00:53:25;101864.91;;;9.67;100.00
71976;BME280;60680;52.182;5.398;2023-02-17T00:55:52;101867.53;;;9.67;100.00
71976;BME280;60680;52.182;5.398;2023-02-17T00:58:18;101864.03;;;9.67;100.00
71976;BME280;60680;52.182;5.398;2023-02-17T01:00:45;101858.00;;;9.66;100.00
71976;BME280;60680;52.182;5.398;2023-02-17T01:03:12;101864.13;;;9.65;100.00
71976;BME280;60680;52.182;5.398;2023-02-17T01:05:43;101865.81;;;9.66;100.00
71976;BME280;60680;52.182;5.398;2023-02-17T01:08:10;101858.00;;;9.66;100.00
71976;BME280;60680;52.182;5.398;2023-02-17T01:10:38;101866.66;;;9.67;100.00
71976;BME280;60680;52.182;5.398;2023-02-17T01:13:06;101865.00;;;9.64;100.00
71976;BME280;60680;52.182;5.398;2023-02-17T01:15:37;101869.34;;;9.64;100.00
71976;BME280;60680;52.182;5.398;2023-02-17T01:18:04;101874.66;;;9.61;100.00
71976;BME280;60680;52.182;5.398;2023-02-17T01:20:34;101883.31;;;9.59;100.00
71976;BME280;60680;52.182;5.398;2023-02-17T01:23:01;101884.25;;;9.58;100.00
71976;BME280;60680;52.182;5.398;2023-02-17T01:25:27;101892.09;;;9.55;100.00
71976;BME280;60680;52.182;5.398;2023-02-17T01:27:54;101886.09;;;9.53;100.00
71976;BME280;60680;52.182;5.398;2023-02-17T01:30:21;101885.25;;;9.53;100.00
71976;BME280;60680;52.182;5.398;2023-02-17T01:32:47;101868.81;;;9.52;100.00
71976;BME280;60680;52.182;5.398;2023-02-17T01:35:14;101871.47;;;9.51;100.00
71976;BME280;60680;52.182;5.398;2023-02-17T01:37:40;101878.41;;;9.50;100.00
71976;BME280;60680;52.182;5.398;2023-02-17T01:40:07;101877.59;;;9.48;100.00
71976;BME280;60680;52.182;5.398;2023-02-17T01:42:33;101881.03;;;9.49;100.00
71976;BME280;60680;52.182;5.398;2023-02-17T01:47:49;101870.75;;;9.46;100.00
71976;BME280;60680;52.182;5.398;2023-02-17T01:50:20;101872.47;;;9.45;100.00
71976;BME280;60680;52.182;5.398;2023-02-17T01:52:47;101874.34;;;9.42;100.00
71976;BME280;60680;52.182;5.398;2023-02-17T01:55:17;101864.81;;;9.41;100.00
71976;BME280;60680;52.182;5.398;2023-02-17T01:57:45;101868.34;;;9.39;100.00
71976;BME280;60680;52.182;5.398;2023-02-17T02:00:14;101875.31;;;9.37;100.00
71976;BME280;60680;52.182;5.398;2023-02-17T02:02:45;101861.47;;;9.37;100.00
71976;BME280;60680;52.182;5.398;2023-02-17T02:05:13;101871.09;;;9.33;100.00
71976;BME280;60680;52.182;5.398;2023-02-17T02:07:41;101846.00;;;9.32;100.00
71976;BME280;60680;52.182;5.398;2023-02-17T02:10:10;101859.00;;;9.32;100.00
71976;BME280;60680;52.182;5.398;2023-02-17T02:12:39;101841.75;;;9.30;100.00
71976;BME280;60680;52.182;5.398;2023-02-17T02:18:30;101834.81;;;9.30;100.00
71976;BME280;60680;52.182;5.398;2023-02-17T02:34:22;101811.03;;;9.14;100.00
71976;BME280;60680;52.182;5.398;2023-02-17T02:37:22;101805.84;;;9.14;100.00
71976;BME280;60680;52.182;5.398;2023-02-17T02:39:51;101801.66;;;9.10;100.00
71976;BME280;60680;52.182;5.398;2023-02-17T02:42:22;101799.03;;;9.10;100.00
71976;BME280;60680;52.182;5.398;2023-02-17T02:44:49;101799.03;;;9.10;100.00
71976;BME280;60680;52.182;5.398;2023-02-17T02:50:05;101797.31;;;9.09;100.00
71976;BME280;60680;52.182;5.398;2023-02-17T02:52:47;101795.59;;;9.10;100.00
71976;BME280;60680;52.182;5.398;2023-02-17T02:58:05;101795.59;;;9.10;100.00
71976;BME280;60680;52.182;5.398;2023-02-17T03:00:42;101799.09;;;9.09;100.00
71976;BME280;60680;52.182;5.398;2023-02-17T03:05:54;101795.69;;;9.07;100.00
71976;BME280;60680;52.182;5.398;2023-02-17T03:08:32;101802.53;;;9.09;100.00
71976;BME280;60680;52.182;5.398;2023-02-17T03:11:02;101796.53;;;9.07;100.00
71976;BME280;60680;52.182;5.398;2023-02-17T03:13:32;101796.59;;;9.06;100.00
71976;BME280;60680;52.182;5.398;2023-02-17T03:16:00;101796.59;;;9.06;100.00
71976;BME280;60680;52.182;5.398;2023-02-17T03:18:27;101790.47;;;9.07;100.00
71976;BME280;60680;52.182;5.398;2023-02-17T03:20:55;101777.50;;;9.07;100.00
71976;BME280;60680;52.182;5.398;2023-02-17T03:23:22;101776.63;;;9.08;100.00
71976;BME280;60680;52.182;5.398;2023-02-17T03:25:50;101774.88;;;9.08;100.00
71976;BME280;60680;52.182;5.398;2023-02-17T03:28:17;101758.47;;;9.06;100.00
71976;BME280;60680;52.182;5.398;2023-02-17T03:30:44;101760.25;;;9.06;100.00
71976;BME280;60680;52.182;5.398;2023-02-17T03:33:10;101751.53;;;9.07;100.00
71976;BME280;60680;52.182;5.398;2023-02-17T03:35:37;101753.31;;;9.05;100.00
71976;BME280;60680;52.182;5.398;2023-02-17T03:38:03;101749.84;;;9.06;100.00
71976;BME280;60680;52.182;5.398;2023-02-17T03:40:30;101749.84;;;9.06;100.00
71976;BME280;60680;52.182;5.398;2023-02-17T03:42:57;101737.72;;;9.06;100.00
71976;BME280;60680;52.182;5.398;2023-02-17T03:45:26;101743.75;;;9.07;100.00
71976;BME280;60680;52.182;5.398;2023-02-17T03:47:52;101748.97;;;9.05;100.00
71976;BME280;60680;52.182;5.398;2023-02-17T03:50:19;101742.91;;;9.06;100.00
71976;BME280;60680;52.182;5.398;2023-02-17T03:52:45;101743.75;;;9.07;100.00
71976;BME280;60680;52.182;5.398;2023-02-17T03:55:12;101730.78;;;9.07;100.00
71976;BME280;60680;52.182;5.398;2023-02-17T03:57:39;101734.22;;;9.07;100.00
71976;BME280;60680;52.182;5.398;2023-02-17T04:00:06;101737.69;;;9.08;100.00
71976;BME280;60680;52.182;5.398;2023-02-17T04:02:33;101722.94;;;9.08;100.00
71976;BME280;60680;52.182;5.398;2023-02-17T04:05:00;101722.91;;;9.10;100.00
71976;BME280;60680;52.182;5.398;2023-02-17T04:07:26;101719.44;;;9.09;100.00
71976;BME280;60680;52.182;5.398;2023-02-17T04:09:53;101720.25;;;9.11;100.00
71976;BME280;60680;52.182;5.398;2023-02-17T04:12:19;101721.13;;;9.12;100.00
71976;BME280;60680;52.182;5.398;2023-02-17T04:14:46;101728.84;;;9.13;100.00
71976;BME280;60680;52.182;5.398;2023-02-17T04:17:13;101724.50;;;9.14;100.00
71976;BME280;60680;52.182;5.398;2023-02-17T04:19:39;101735.72;;;9.16;100.00
71976;BME280;60680;52.182;5.398;2023-02-17T04:22:06;101737.41;;;9.17;100.00
71976;BME280;60680;52.182;5.398;2023-02-17T04:24:35;101735.63;;;9.17;100.00
71976;BME280;60680;52.182;5.398;2023-02-17T04:27:03;101738.16;;;9.21;100.00
71976;BME280;60680;52.182;5.398;2023-02-17T04:29:31;101743.34;;;9.21;100.00
71976;BME280;60680;52.182;5.398;2023-02-17T04:31:57;101743.34;;;9.21;100.00
71976;BME280;60680;52.182;5.398;2023-02-17T04:34:24;101739.00;;;9.21;100.00
71976;BME280;60680;52.182;5.398;2023-02-17T04:36:50;101730.31;;;9.22;100.00
71976;BME280;60680;52.182;5.398;2023-02-17T04:39:17;101714.69;;;9.24;100.00
71976;BME280;60680;52.182;5.398;2023-02-17T04:41:44;101710.31;;;9.24;100.00
71976;BME280;60680;52.182;5.398;2023-02-17T04:44:10;101708.59;;;9.25;100.00
71976;BME280;60680;52.182;5.398;2023-02-17T04:46:37;101709.44;;;9.25;100.00
71976;BME280;60680;52.182;5.398;2023-02-17T04:49:03;101719.78;;;9.27;100.00
71976;BME280;60680;52.182;5.398;2023-02-17T04:51:30;101713.69;;;9.28;100.00
71976;BME280;60680;52.182;5.398;2023-02-17T04:53:56;101714.50;;;9.30;100.00
71976;BME280;60680;52.182;5.398;2023-02-17T04:56:23;101709.28;;;9.30;100.00
71976;BME280;60680;52.182;5.398;2023-02-17T04:58:49;101699.72;;;9.32;100.00
71976;BME280;60680;52.182;5.398;2023-02-17T05:01:16;101714.41;;;9.33;100.00
71976;BME280;60680;52.182;5.398;2023-02-17T05:03:45;101721.34;;;9.32;100.00
71976;BME280;60680;52.182;5.398;2023-02-17T05:06:11;101720.44;;;9.33;100.00
71976;BME280;60680;52.182;5.398;2023-02-17T05:08:38;101727.34;;;9.34;100.00
71976;BME280;60680;52.182;5.398;2023-02-17T05:11:05;101729.09;;;9.34;100.00
71976;BME280;60680;52.182;5.398;2023-02-17T05:13:31;101722.97;;;9.35;100.00
71976;BME280;60680;52.182;5.398;2023-02-17T05:16:00;101730.72;;;9.36;100.00
71976;BME280;60680;52.182;5.398;2023-02-17T05:18:28;101735.88;;;9.38;100.00
71976;BME280;60680;52.182;5.398;2023-02-17T05:20:56;101729.84;;;9.37;100.00
71976;BME280;60680;52.182;5.398;2023-02-17T05:23:23;101742.78;;;9.39;100.00
71976;BME280;60680;52.182;5.398;2023-02-17T05:25:49;101723.72;;;9.40;100.00
71976;BME280;60680;52.182;5.398;2023-02-17T05:28:16;101707.28;;;9.39;100.00
71976;BME280;60680;52.182;5.398;2023-02-17T05:30:42;101717.66;;;9.39;100.00
71976;BME280;60680;52.182;5.398;2023-02-17T05:33:09;101717.59;;;9.41;100.00
71976;BME280;60680;52.182;5.398;2023-02-17T05:35:35;101721.94;;;9.41;100.00
71976;BME280;60680;52.182;5.398;2023-02-17T05:38:02;101716.75;;;9.41;100.00
71976;BME280;60680;52.182;5.398;2023-02-17T05:40:28;101714.16;;;9.41;100.00
71976;BME280;60680;52.182;5.398;2023-02-17T05:42:55;101712.41;;;9.41;100.00
71976;BME280;60680;52.182;5.398;2023-02-17T05:45:21;101727.16;;;9.41;100.00
71976;BME280;60680;52.182;5.398;2023-02-17T05:47:48;101713.31;;;9.40;100.00
71976;BME280;60680;52.182;5.398;2023-02-17T05:50:14;101708.16;;;9.38;100.00
71976;BME280;60680;52.182;5.398;2023-02-17T05:52:41;101693.41;;;9.39;100.00
71976;BME280;60680;52.182;5.398;2023-02-17T05:55:07;101693.50;;;9.37;100.00
71976;BME280;60680;52.182;5.398;2023-02-17T05:57:34;101693.41;;;9.39;100.00
71976;BME280;60680;52.182;5.398;2023-02-17T06:00:00;101684.78;;;9.38;100.00
71976;BME280;60680;52.182;5.398;2023-02-17T06:02:27;101693.41;;;9.39;100.00
71976;BME280;60680;52.182;5.398;2023-02-17T06:04:53;101690.81;;;9.39;100.00
71976;BME280;60680;52.182;5.398;2023-02-17T06:07:20;101696.88;;;9.39;100.00
71976;BME280;60680;52.182;5.398;2023-02-17T06:09:46;101698.53;;;9.42;100.00
71976;BME280;60680;52.182;5.398;2023-02-17T06:12:13;101694.28;;;9.39;100.00
71976;BME280;60680;52.182;5.398;2023-02-17T06:14:39;101695.97;;;9.41;100.00
71976;BME280;60680;52.182;5.398;2023-02-17T06:17:07;101694.22;;;9.41;100.00
71976;BME280;60680;52.182;5.398;2023-02-17T06:19:33;101695.09;;;9.42;100.00
71976;BME280;60680;52.182;5.398;2023-02-17T06:22:00;101694.22;;;9.41;100.00
71976;BME280;60680;52.182;5.398;2023-02-17T06:24:26;101682.91;;;9.44;100.00
71976;BME280;60680;52.182;5.398;2023-02-17T06:26:53;101694.13;;;9.44;100.00
71976;BME280;60680;52.182;5.398;2023-02-17T06:29:19;101699.28;;;9.46;100.00
71976;BME280;60680;52.182;5.398;2023-02-17T06:31:46;101685.44;;;9.45;100.00
71976;BME280;60680;52.182;5.398;2023-02-17T06:34:12;101681.03;;;9.47;100.00
71976;BME280;60680;52.182;5.398;2023-02-17T06:36:39;101669.75;;;9.48;100.00
71976;BME280;60680;52.182;5.398;2023-02-17T06:39:05;101672.34;;;9.48;100.00
71976;BME280;60680;52.182;5.398;2023-02-17T06:41:32;101664.56;;;9.48;100.00
71976;BME280;60680;52.182;5.398;2023-02-17T06:43:59;101660.22;;;9.49;100.00
71976;BME280;60680;52.182;5.398;2023-02-17T06:46:25;101657.56;;;9.50;100.00
71976;BME280;60680;52.182;5.398;2023-02-17T06:48:52;101648.88;;;9.51;100.00
71976;BME280;60680;52.182;5.398;2023-02-17T06:51:18;101655.78;;;9.52;100.00
71976;BME280;60680;52.182;5.398;2023-02-17T06:53:45;101655.69;;;9.54;100.00
71976;BME280;60680;52.182;5.398;2023-02-17T06:56:11;101659.16;;;9.54;100.00
71976;BME280;60680;52.182;5.398;2023-02-17T06:58:38;101654.78;;;9.56;100.00
71976;BME280;60680;52.182;5.398;2023-02-17T07:01:04;101659.91;;;9.58;100.00
71976;BME280;60680;52.182;5.398;2023-02-17T07:03:31;101646.88;;;9.59;100.00
71976;BME280;60680;52.182;5.398;2023-02-17T07:05:58;101648.56;;;9.61;100.00
71976;BME280;60680;52.182;5.398;2023-02-17T07:08:25;101633.81;;;9.61;100.00
71976;BME280;60680;52.182;5.398;2023-02-17T07:10:51;101626.88;;;9.62;100.00
71976;BME280;60680;52.182;5.398;2023-02-17T07:13:18;101658.00;;;9.63;100.00
71976;BME280;60680;52.182;5.398;2023-02-17T07:15:44;101661.41;;;9.65;100.00
71976;BME280;60680;52.182;5.398;2023-02-17T07:18:11;101658.75;;;9.67;100.00
71976;BME280;60680;52.182;5.398;2023-02-17T07:20:37;101669.13;;;9.67;100.00
71976;BME280;60680;52.182;5.398;2023-02-17T07:23:04;101699.38;;;9.69;100.00
71976;BME280;60680;52.182;5.398;2023-02-17T07:25:31;101676.84;;;9.70;100.00
71976;BME280;60680;52.182;5.398;2023-02-17T07:27:58;101685.44;;;9.72;100.00
71976;BME280;60680;52.182;5.398;2023-02-17T07:30:25;101656.84;;;9.72;100.00
71976;BME280;60680;52.182;5.398;2023-02-17T07:32:51;101661.09;;;9.74;100.00
71976;BME280;60680;52.182;5.398;2023-02-17T07:35:18;101670.53;;;9.77;100.00
71976;BME280;60680;52.182;5.398;2023-02-17T07:37:45;101667.03;;;9.78;100.00
71976;BME280;60680;52.182;5.398;2023-02-17T07:40:11;101658.28;;;9.80;100.00
71976;BME280;60680;52.182;5.398;2023-02-17T07:42:38;101661.63;;;9.84;100.00
71976;BME280;60680;52.182;5.398;2023-02-17T07:45:05;101656.44;;;9.84;100.00
71976;BME280;60680;52.182;5.398;2023-02-17T07:47:32;101657.16;;;9.88;100.00
71976;BME280;60680;52.182;5.398;2023-02-17T07:49:58;101664.97;;;9.88;100.00
71976;BME280;60680;52.182;5.398;2023-02-17T07:52:25;101660.50;;;9.91;100.00
71976;BME280;60680;52.182;5.398;2023-02-17T07:54:51;101663.91;;;9.93;100.00
71976;BME280;60680;52.182;5.398;2023-02-17T07:57:18;101675.94;;;9.96;100.00
71976;BME280;60680;52.182;5.398;2023-02-17T07:59:45;101662.00;;;9.98;100.00
71976;BME280;60680;52.182;5.398;2023-02-17T08:02:12;101657.59;;;10.00;100.00
71976;BME280;60680;52.182;5.398;2023-02-17T08:04:39;101665.34;;;10.02;100.00
71976;BME280;60680;52.182;5.398;2023-02-17T08:07:05;101673.09;;;10.04;100.00
71976;BME280;60680;52.182;5.398;2023-02-17T08:09:32;101676.50;;;10.06;100.00
71976;BME280;60680;52.182;5.398;2023-02-17T08:12:18;101668.56;;;10.09;100.00
71976;BME280;60680;52.182;5.398;2023-02-17T08:15:05;101677.13;;;10.12;100.00
71976;BME280;60680;52.182;5.398;2023-02-17T08:17:32;101685.72;;;10.14;100.00
71976;BME280;60680;52.182;5.398;2023-02-17T08:19:59;101685.69;;;10.16;100.00
71976;BME280;60680;52.182;5.398;2023-02-17T08:22:33;101663.91;;;10.18;100.00
71976;BME280;60680;52.182;5.398;2023-02-17T08:25:00;101675.94;;;10.21;100.00
71976;BME280;60680;52.182;5.398;2023-02-17T08:27:26;101688.97;;;10.21;100.00
71976;BME280;60680;52.182;5.398;2023-02-17T08:29:53;101692.31;;;10.25;100.00
71976;BME280;60680;52.182;5.398;2023-02-17T08:32:21;101700.91;;;10.27;100.00
71976;BME280;60680;52.182;5.398;2023-02-17T08:34:48;101704.34;;;10.27;100.00
71976;BME280;60680;52.182;5.398;2023-02-17T08:37:14;101694.78;;;10.28;100.00
71976;BME280;60680;52.182;5.398;2023-02-17T08:39:41;101709.47;;;10.30;100.00
71976;BME280;60680;52.182;5.398;2023-02-17T08:42:07;101700.81;;;10.30;100.00
71976;BME280;60680;52.182;5.398;2023-02-17T08:44:34;101715.53;;;10.31;100.00
71976;BME280;60680;52.182;5.398;2023-02-17T08:47:02;101723.34;;;10.31;100.00
71976;BME280;60680;52.182;5.398;2023-02-17T08:49:30;101738.03;;;10.32;100.00
71976;BME280;60680;52.182;5.398;2023-02-17T08:51:58;101742.44;;;10.30;100.00
71976;BME280;60680;52.182;5.398;2023-02-17T08:54:25;101739.84;;;10.30;100.00
71976;BME280;60680;52.182;5.398;2023-02-17T08:56:51;101745.06;;;10.28;100.00
71976;BME280;60680;52.182;5.398;2023-02-17T08:59:18;101739.00;;;10.29;100.00
71976;BME280;60680;52.182;5.398;2023-02-17T09:01:44;101738.13;;;10.29;100.00
71976;BME280;60680;52.182;5.398;2023-02-17T09:04:12;101736.41;;;10.29;100.00
71976;BME280;60680;52.182;5.398;2023-02-17T09:06:47;101730.28;;;10.30;100.00
71976;BME280;60680;52.182;5.398;2023-02-17T09:09:16;101724.22;;;10.30;100.00
71976;BME280;60680;52.182;5.398;2023-02-17T09:11:44;101740.69;;;10.30;100.00
71976;BME280;60680;52.182;5.398;2023-02-17T09:14:11;101731.06;;;10.32;100.00
71976;BME280;60680;52.182;5.398;2023-02-17T09:16:37;101743.16;;;10.35;100.00
71976;BME280;60680;52.182;5.398;2023-02-17T09:19:06;101740.56;;;10.35;100.00
71976;BME280;60680;52.182;5.398;2023-02-17T09:21:33;101737.78;;;10.39;100.00
71976;BME280;60680;52.182;5.398;2023-02-17T09:23:59;101733.38;;;10.42;100.00
71976;BME280;60680;52.182;5.398;2023-02-17T09:26:26;101731.56;;;10.44;100.00
71976;BME280;60680;52.182;5.398;2023-02-17T09:28:52;101727.16;;;10.46;100.00
71976;BME280;60680;52.182;5.398;2023-02-17T09:31:21;101728.78;;;10.48;100.00
71976;BME280;60680;52.182;5.398;2023-02-17T09:33:49;101713.19;;;10.48;100.00
71976;BME280;60680;52.182;5.398;2023-02-17T09:36:21;101714.78;;;10.52;100.00
71976;BME280;60680;52.182;5.398;2023-02-17T09:38:49;101714.66;;;10.55;100.00
71976;BME280;60680;52.182;5.398;2023-02-17T09:41:23;101722.28;;;10.60;100.00
71976;BME280;60680;52.182;5.398;2023-02-17T09:43:52;101716.19;;;10.61;100.00
71976;BME280;60680;52.182;5.398;2023-02-17T09:46:24;101725.63;;;10.64;100.00
71976;BME280;60680;52.182;5.398;2023-02-17T09:48:55;101705.44;;;10.70;100.00
71976;BME280;60680;52.182;5.398;2023-02-17T09:54:16;101716.19;;;10.85;100.00
71976;BME280;60680;52.182;5.398;2023-02-17T09:56:46;101695.06;;;10.92;99.86
71976;BME280;60680;52.182;5.398;2023-02-17T10:01:51;101725.41;;;10.93;98.70
71976;BME280;60680;52.182;5.398;2023-02-17T10:04:34;101710.63;;;10.94;98.88
71976;BME280;60680;52.182;5.398;2023-02-17T10:07:05;101708.84;;;10.94;99.02
71976;BME280;60680;52.182;5.398;2023-02-17T10:09:36;101730.47;;;10.96;98.65
71976;BME280;60680;52.182;5.398;2023-02-17T10:12:09;101713.16;;;10.95;98.35
71976;BME280;60680;52.182;5.398;2023-02-17T10:14:45;101743.75;;;10.90;98.13
71976;BME280;60680;52.182;5.398;2023-02-17T10:17:34;101736.00;;;10.89;98.20
71976;BME280;60680;52.182;5.398;2023-02-17T10:20:10;101747.28;;;10.88;99.31
71976;BME280;60680;52.182;5.398;2023-02-17T10:22:39;101758.63;;;10.87;99.19
71976;BME280;60680;52.182;5.398;2023-02-17T10:25:17;101756.81;;;10.89;98.57
71976;BME280;60680;52.182;5.398;2023-02-17T10:30:32;101754.88;;;10.94;99.40
71976;BME280;60680;52.182;5.398;2023-02-17T10:38:51;101740.22;;;10.91;99.03
71976;BME280;60680;52.182;5.398;2023-02-17T10:41:26;101728.97;;;10.91;99.26
71976;BME280;60680;52.182;5.398;2023-02-17T10:43:54;101732.47;;;10.90;99.21
71976;BME280;60680;52.182;5.398;2023-02-17T10:46:27;101734.97;;;10.93;98.90
71976;BME280;60680;52.182;5.398;2023-02-17T10:48:55;101759.25;;;10.93;99.56
71976;BME280;60680;52.182;5.398;2023-02-17T10:51:26;101762.78;;;10.92;99.12
71976;BME280;60680;52.182;5.398;2023-02-17T10:54:06;101754.03;;;10.93;99.20
71976;BME280;60680;52.182;5.398;2023-02-17T10:56:52;101750.53;;;10.94;98.86
71976;BME280;60680;52.182;5.398;2023-02-17T10:59:31;101744.38;;;10.97;99.28
71976;BME280;60680;52.182;5.398;2023-02-17T11:02:16;101762.44;;;11.01;98.95
71976;BME280;60680;52.182;5.398;2023-02-17T11:04:45;101777.75;;;11.09;98.99
71976;BME280;60680;52.182;5.398;2023-02-17T11:07:14;101761.97;;;11.14;98.16
71976;BME280;60680;52.182;5.398;2023-02-17T11:10:02;101751.38;;;11.18;98.31
71976;BME280;60680;52.182;5.398;2023-02-17T11:12:38;101760.16;;;11.16;98.25
71976;BME280;60680;52.182;5.398;2023-02-17T11:15:15;101782.03;;;11.12;98.73
71976;BME280;60680;52.182;5.398;2023-02-17T11:17:44;101769.16;;;11.07;98.76
71976;BME280;60680;52.182;5.398;2023-02-17T11:22:46;101785.69;;;11.06;98.27
71976;BME280;60680;52.182;5.398;2023-02-17T11:27:53;101794.34;;;11.07;98.73
71976;BME280;60680;52.182;5.398;2023-02-17T11:30:20;101797.88;;;11.06;98.60
71976;BME280;60680;52.182;5.398;2023-02-17T11:32:47;101804.91;;;11.04;98.21
71976;BME280;60680;52.182;5.398;2023-02-17T11:35:27;101801.38;;;11.05;98.29
71976;BME280;60680;52.182;5.398;2023-02-17T11:38:14;101807.44;;;11.05;98.31
71976;BME280;60680;52.182;5.398;2023-02-17T11:41:02;101798.72;;;11.06;98.87
71976;BME280;60680;52.182;5.398;2023-02-17T11:43:30;101803.97;;;11.05;98.69
71976;BME280;60680;52.182;5.398;2023-02-17T11:46:17;101797.88;;;11.06;98.14
71976;BME280;60680;52.182;5.398;2023-02-17T11:49:16;101795.28;;;11.06;98.61
71976;BME280;60680;52.182;5.398;2023-02-17T12:11:47;101834.56;;;10.99;97.70
71976;BME280;60680;52.182;5.398;2023-02-17T12:17:17;101837.97;;;11.01;97.77
71976;BME280;60680;52.182;5.398;2023-02-17T12:19:58;101842.41;;;10.98;97.89
71976;BME280;60680;52.182;5.398;2023-02-17T12:33:25;101862.63;;;10.91;98.13
71976;BME280;60680;52.182;5.398;2023-02-17T12:36:00;101860.03;;;10.91;97.67
71976;BME280;60680;52.182;5.398;2023-02-17T12:38:33;101863.53;;;10.90;98.20
71976;BME280;60680;52.182;5.398;2023-02-17T12:43:56;101873.25;;;10.85;98.89
71976;BME280;60680;52.182;5.398;2023-02-17T12:46:38;101874.22;;;10.82;99.13
71976;BME280;60680;52.182;5.398;2023-02-17T12:49:19;101878.50;;;10.84;99.24
71976;BME280;60680;52.182;5.398;2023-02-17T12:51:53;101872.56;;;10.80;100.00
71976;BME280;60680;52.182;5.398;2023-02-17T12:54:37;101875.19;;;10.80;100.00
71976;BME280;60680;52.182;5.398;2023-02-17T12:57:24;101863.88;;;10.79;100.00
71976;BME280;60680;52.182;5.398;2023-02-17T12:59:52;101877.81;;;10.78;100.00
71976;BME280;60680;52.182;5.398;2023-02-17T13:02:22;101877.81;;;10.78;100.00
71976;BME280;60680;52.182;5.398;2023-02-17T13:04:59;101869.84;;;10.83;100.00
71976;BME280;60680;52.182;5.398;2023-02-17T13:10:03;101870.44;;;10.91;100.00
71976;BME280;60680;52.182;5.398;2023-02-17T13:12:36;101863.09;;;11.02;99.85
71976;BME280;60680;52.182;5.398;2023-02-17T13:15:24;101855.78;;;11.12;99.94
71976;BME280;60680;52.182;5.398;2023-02-17T13:17:54;101877.09;;;11.23;98.80
71976;BME280;60680;52.182;5.398;2023-02-17T13:23:38;101870.81;;;11.29;97.29
71976;BME280;60680;52.182;5.398;2023-02-17T13:28:47;101851.50;;;11.35;95.89
71976;BME280;60680;52.182;5.398;2023-02-17T13:31:25;101863.63;;;11.36;95.77
71976;BME280;60680;52.182;5.398;2023-02-17T13:33:57;101892.22;;;11.37;95.94
71976;BME280;60680;52.182;5.398;2023-02-17T13:39:04;101883.63;;;11.35;95.28
71976;BME280;60680;52.182;5.398;2023-02-17T13:41:46;101859.31;;;11.35;94.98
71976;BME280;60680;52.182;5.398;2023-02-17T13:44:39;101867.97;;;11.35;95.05
71976;BME280;60680;52.182;5.398;2023-02-17T13:49:38;101868.09;;;11.32;95.45
71976;BME280;60680;52.182;5.398;2023-02-17T13:54:34;101866.09;;;11.39;94.53
71976;BME280;60680;52.182;5.398;2023-02-17T13:57:01;101861.00;;;11.36;94.56
71976;BME280;60680;52.182;5.398;2023-02-17T13:59:27;101867.16;;;11.35;94.08
71976;BME280;60680;52.182;5.398;2023-02-17T14:01:54;101854.13;;;11.35;93.97
71976;BME280;60680;52.182;5.398;2023-02-17T14:04:29;101853.84;;;11.41;94.68
71976;BME280;60680;52.182;5.398;2023-02-17T14:06:57;101860.75;;;11.43;93.82
71976;BME280;60680;52.182;5.398;2023-02-17T14:09:28;101849.75;;;11.57;93.16
71976;BME280;60680;52.182;5.398;2023-02-17T14:11:57;101858.28;;;11.62;93.47
71976;BME280;60680;52.182;5.398;2023-02-17T14:14:36;101869.94;;;11.76;93.42
71976;BME280;60680;52.182;5.398;2023-02-17T14:17:12;101849.31;;;11.92;92.66
71976;BME280;60680;52.182;5.398;2023-02-17T14:19:45;101839.63;;;11.95;92.23
71976;BME280;60680;52.182;5.398;2023-02-17T14:22:25;101861.34;;;11.96;91.33
71976;BME280;60680;52.182;5.398;2023-02-17T14:25:14;101865.75;;;11.94;91.88
71976;BME280;60680;52.182;5.398;2023-02-17T14:27:51;101879.19;;;11.83;91.83
71976;BME280;60680;52.182;5.398;2023-02-17T14:33:01;101853.84;;;11.88;91.85
71976;BME280;60680;52.182;5.398;2023-02-17T14:35:28;101877.13;;;11.93;91.33
71976;BME280;60680;52.182;5.398;2023-02-17T14:38:06;101870.19;;;11.92;91.75
71976;BME280;60680;52.182;5.398;2023-02-17T14:40:33;101880.00;;;11.85;91.04
71976;BME280;60680;52.182;5.398;2023-02-17T14:42:59;101880.22;;;11.79;91.28